createdAt,value
2022-09-28T00:01:20.854Z,89.53
2022-09-28T00:03:51.695Z,89.49
2022-09-28T00:06:24.366Z,89.50
2022-09-28T00:08:52.297Z,89.45
2022-09-28T00:11:23.159Z,89.49
2022-09-28T00:13:55.046Z,89.55
2022-09-28T00:16:27.585Z,89.75
2022-09-28T00:18:55.772Z,89.79
2022-09-28T00:21:28.874Z,89.94
2022-09-28T00:24:25.240Z,90.07
2022-09-28T00:26:56.749Z,89.99
2022-09-28T00:29:27.757Z,90.01
2022-09-28T00:32:09.258Z,89.90
2022-09-28T00:34:45.845Z,89.84
2022-09-28T00:37:15.376Z,89.81
2022-09-28T00:39:43.957Z,89.61
2022-09-28T00:42:29.874Z,89.50
2022-09-28T00:44:58.726Z,89.38
2022-09-28T00:47:50.949Z,89.17
2022-09-28T00:50:27.351Z,89.08
2022-09-28T00:53:14.590Z,89.07
2022-09-28T00:55:52.002Z,88.98
2022-09-28T00:58:29.997Z,89.09
2022-09-28T01:00:59.642Z,89.25
2022-09-28T01:03:29.151Z,89.13
2022-09-28T01:06:00.506Z,89.07
2022-09-28T01:08:31.721Z,89.09
2022-09-28T01:11:00.443Z,89.03
2022-09-28T01:13:32.333Z,89.12
2022-09-28T01:16:12.832Z,89.13
2022-09-28T01:19:08.733Z,89.27
2022-09-28T01:22:32.851Z,89.44
2022-09-28T01:25:51.003Z,89.65
2022-09-28T01:28:23.699Z,89.79
2022-09-28T01:31:10.469Z,89.74
2022-09-28T01:33:47.467Z,89.56
2022-09-28T01:36:44.147Z,89.49
2022-09-28T01:39:43.199Z,89.37
2022-09-28T01:42:21.910Z,89.25
2022-09-28T01:44:53.207Z,89.04
2022-09-28T01:47:26.210Z,89.02
2022-09-28T01:50:15.160Z,89.30
2022-09-28T01:53:01.055Z,89.06
2022-09-28T01:55:34.782Z,89.17
2022-09-28T01:58:48.125Z,89.19
2022-09-28T02:01:23.535Z,89.15
2022-09-28T02:04:11.539Z,89.06
2022-09-28T02:06:47.128Z,89.07
2022-09-28T02:09:28.519Z,89.15
2022-09-28T02:12:10.746Z,89.19
2022-09-28T02:14:42.517Z,89.14
2022-09-28T02:17:10.823Z,89.11
2022-09-28T02:19:40.095Z,89.19
2022-09-28T02:22:23.186Z,89.24
2022-09-28T02:25:29.695Z,89.32
2022-09-28T02:28:05.327Z,89.51
2022-09-28T02:30:38.093Z,89.62
2022-09-28T02:33:17.657Z,89.78
2022-09-28T02:35:46.043Z,89.59
2022-09-28T02:38:14.797Z,89.44
2022-09-28T02:40:53.159Z,88.76
2022-09-28T02:43:29.454Z,88.56
2022-09-28T02:46:28.675Z,88.35
2022-09-28T02:49:22.399Z,88.43
2022-09-28T02:52:30.651Z,88.37
2022-09-28T02:55:21.488Z,88.11
2022-09-28T02:58:21.195Z,87.95
2022-09-28T03:01:43.165Z,87.89
2022-09-28T03:04:28.604Z,87.79
2022-09-28T03:07:11.155Z,87.57
2022-09-28T03:10:05.550Z,87.54
2022-09-28T03:12:34.867Z,87.44
2022-09-28T03:15:20.039Z,87.55
2022-09-28T03:17:48.154Z,87.44
2022-09-28T03:20:16.667Z,87.32
2022-09-28T03:22:55.826Z,87.46
2022-09-28T03:25:32.063Z,87.57
2022-09-28T03:27:59.855Z,87.67
2022-09-28T03:30:28.093Z,87.78
2022-09-28T03:33:00.445Z,87.69
2022-09-28T03:35:30.587Z,87.69
2022-09-28T03:37:58.156Z,87.98
2022-09-28T03:40:27.970Z,88.03
2022-09-28T03:42:55.511Z,88.07
2022-09-28T03:45:23.095Z,88.10
2022-09-28T03:47:52.360Z,87.94
2022-09-28T03:50:19.825Z,87.90
2022-09-28T03:52:49.043Z,87.79
2022-09-28T03:55:16.995Z,88.19
2022-09-28T03:57:44.500Z,88.21
2022-09-28T04:00:12.957Z,88.06
2022-09-28T04:02:43.229Z,88.01
2022-09-28T04:05:11.529Z,88.07
2022-09-28T04:07:39.032Z,88.07
2022-09-28T04:10:07.283Z,88.07
2022-09-28T04:12:34.719Z,87.97
2022-09-28T04:15:02.247Z,87.95
2022-09-28T04:17:29.733Z,87.97
2022-09-28T04:19:57.782Z,88.16
2022-09-28T04:22:46.008Z,88.62
2022-09-28T04:25:13.514Z,88.34
2022-09-28T04:27:59.854Z,88.28
2022-09-28T04:30:27.490Z,88.13
2022-09-28T04:32:55.004Z,88.31
2022-09-28T04:35:22.496Z,88.34
2022-09-28T04:37:50.113Z,88.32
2022-09-28T04:40:17.804Z,88.41
2022-09-28T04:42:45.345Z,88.44
2022-09-28T04:45:14.447Z,88.47
2022-09-28T04:47:45.291Z,88.25
2022-09-28T04:50:57.698Z,88.04
2022-09-28T04:53:27.535Z,87.88
2022-09-28T04:56:03.610Z,88.08
2022-09-28T04:58:32.503Z,88.27
2022-09-28T05:01:07.032Z,88.19
2022-09-28T05:03:53.203Z,88.37
2022-09-28T05:06:59.257Z,88.24
2022-09-28T05:09:27.335Z,88.32
2022-09-28T05:11:54.783Z,88.45
2022-09-28T05:14:25.503Z,88.49
2022-09-28T05:16:53.239Z,88.47
2022-09-28T05:19:27.125Z,88.60
2022-09-28T05:22:04.003Z,88.53
2022-09-28T05:24:36.485Z,88.49
2022-09-28T05:27:04.132Z,88.55
2022-09-28T05:29:32.608Z,88.44
2022-09-28T05:32:42.622Z,88.09
2022-09-28T05:35:32.932Z,88.04
2022-09-28T05:38:05.442Z,87.68
2022-09-28T05:40:33.841Z,87.88
2022-09-28T05:43:02.260Z,87.71
2022-09-28T05:45:30.597Z,87.53
2022-09-28T05:47:58.238Z,87.37
2022-09-28T05:50:26.067Z,87.52
2022-09-28T05:53:05.732Z,87.46
2022-09-28T05:55:34.494Z,87.52
2022-09-28T05:58:06.051Z,87.25
2022-09-28T06:00:35.672Z,87.12
2022-09-28T06:03:12.061Z,86.84
2022-09-28T06:05:40.624Z,86.28
2022-09-28T06:08:10.785Z,85.63
2022-09-28T06:10:43.625Z,85.46
2022-09-28T06:13:12.111Z,85.62
2022-09-28T06:15:42.837Z,85.56
2022-09-28T06:18:16.571Z,84.58
2022-09-28T06:21:05.883Z,84.10
2022-09-28T06:23:43.581Z,83.16
2022-09-28T06:26:13.563Z,83.65
2022-09-28T06:28:41.014Z,83.26
2022-09-28T06:31:10.275Z,82.71
2022-09-28T06:33:44.705Z,82.82
2022-09-28T06:36:13.344Z,81.93
2022-09-28T06:38:41.004Z,81.41
2022-09-28T06:41:10.748Z,82.30
2022-09-28T06:43:40.477Z,82.31
2022-09-28T06:46:14.316Z,82.86
2022-09-28T06:48:51.032Z,82.74
2022-09-28T06:51:22.282Z,82.45
2022-09-28T06:54:03.550Z,82.86
2022-09-28T06:56:38.305Z,82.89
2022-09-28T06:59:05.879Z,83.28
2022-09-28T07:01:34.459Z,83.91
2022-09-28T07:04:09.518Z,84.05
2022-09-28T07:06:55.395Z,83.60
2022-09-28T07:09:55.504Z,84.28
2022-09-28T07:12:41.772Z,84.29
2022-09-28T07:15:32.670Z,84.56
2022-09-28T07:18:04.328Z,84.62
2022-09-28T07:20:46.615Z,84.90
2022-09-28T07:23:20.094Z,84.27
2022-09-28T07:26:08.452Z,83.93
2022-09-28T07:29:02.747Z,83.23
2022-09-28T07:31:45.099Z,83.65
2022-09-28T07:34:23.502Z,83.90
2022-09-28T07:37:07.102Z,83.81
2022-09-28T07:39:54.698Z,83.87
2022-09-28T07:42:22.376Z,82.77
2022-09-28T07:44:49.824Z,82.97
2022-09-28T07:47:19.007Z,83.63
2022-09-28T07:50:07.040Z,83.01
2022-09-28T07:52:40.775Z,83.21
2022-09-28T07:55:19.533Z,82.25
2022-09-28T07:58:02.612Z,82.98
2022-09-28T08:00:50.745Z,81.97
2022-09-28T08:03:22.435Z,81.63
2022-09-28T08:05:50.068Z,82.67
2022-09-28T08:08:18.505Z,82.69
2022-09-28T08:10:48.488Z,82.64
2022-09-28T08:13:27.012Z,83.29
2022-09-28T08:16:02.267Z,83.83
2022-09-28T08:18:36.462Z,84.32
2022-09-28T08:21:25.226Z,82.85
2022-09-28T08:23:53.130Z,82.67
2022-09-28T08:26:20.761Z,79.99
2022-09-28T08:28:48.455Z,79.52
2022-09-28T08:31:38.658Z,76.90
2022-09-28T08:34:20.691Z,77.60
2022-09-28T08:37:15.256Z,74.90
2022-09-28T08:40:01.549Z,72.59
2022-09-28T08:42:52.119Z,73.51
2022-09-28T08:45:38.123Z,73.78
2022-09-28T08:48:51.836Z,72.40
2022-09-28T08:52:02.948Z,69.49
2022-09-28T08:55:21.852Z,69.16
2022-09-28T08:58:18.315Z,66.90
2022-09-28T09:00:50.124Z,64.48
2022-09-28T09:03:35.915Z,65.22
2022-09-28T09:06:37.814Z,66.69
2022-09-28T09:09:58.614Z,65.21
2022-09-28T09:12:34.986Z,64.70
2022-09-28T09:15:11.476Z,66.38
2022-09-28T09:18:16.636Z,67.10
2022-09-28T09:21:33.834Z,71.36
2022-09-28T09:24:29.540Z,71.80
2022-09-28T09:27:12.450Z,69.33
2022-09-28T09:30:18.053Z,70.22
2022-09-28T09:33:11.500Z,69.05
2022-09-28T09:36:22.399Z,65.53
2022-09-28T09:39:31.455Z,67.24
2022-09-28T09:43:08.429Z,64.46
2022-09-28T09:45:55.369Z,65.60
2022-09-28T09:48:45.662Z,65.75
2022-09-28T09:51:30.057Z,66.51
2022-09-28T09:54:07.248Z,66.74
2022-09-28T09:56:44.255Z,69.00
2022-09-28T09:59:32.122Z,68.51
2022-09-28T10:02:34.743Z,67.12
2022-09-28T10:05:32.372Z,65.28
2022-09-28T10:08:08.924Z,64.65
2022-09-28T10:10:49.452Z,63.77
2022-09-28T10:13:19.110Z,62.15
2022-09-28T10:15:48.282Z,61.36
2022-09-28T10:18:38.969Z,60.87
2022-09-28T10:21:25.823Z,63.14
2022-09-28T10:24:04.119Z,62.40
2022-09-28T10:26:40.459Z,64.86
2022-09-28T10:29:25.131Z,62.45
2022-09-28T10:31:54.674Z,61.30
2022-09-28T10:34:42.355Z,60.26
2022-09-28T10:37:17.875Z,60.82
2022-09-28T10:40:32.423Z,58.78
2022-09-28T10:43:08.217Z,58.89
2022-09-28T10:45:37.889Z,57.72
2022-09-28T10:48:16.616Z,58.51
2022-09-28T10:51:08.401Z,60.32
2022-09-28T10:53:38.767Z,58.19
2022-09-28T10:56:30.348Z,57.51
2022-09-28T10:59:31.626Z,56.43
2022-09-28T11:02:29.499Z,55.14
2022-09-28T11:05:07.499Z,55.37
2022-09-28T11:07:48.082Z,55.22
2022-09-28T11:10:26.122Z,55.17
2022-09-28T11:12:58.036Z,55.99
2022-09-28T11:15:33.396Z,53.93
2022-09-28T11:18:31.548Z,55.06
2022-09-28T11:21:16.767Z,56.67
2022-09-28T11:24:19.734Z,57.90
2022-09-28T11:26:58.338Z,56.54
2022-09-28T11:29:43.058Z,56.92
2022-09-28T11:32:40.196Z,56.01
2022-09-28T11:36:12.305Z,58.42
2022-09-28T11:38:58.895Z,57.14
2022-09-28T11:42:16.374Z,57.73
2022-09-28T11:44:48.813Z,56.03
2022-09-28T11:47:57.623Z,55.96
2022-09-28T11:50:47.602Z,56.60
2022-09-28T11:53:37.225Z,59.43
2022-09-28T11:56:39.735Z,59.52
2022-09-28T11:59:21.563Z,58.65
2022-09-28T12:02:17.373Z,58.95
2022-09-28T12:05:20.510Z,59.88
2022-09-28T12:08:07.798Z,59.82
2022-09-28T12:11:11.396Z,57.75
2022-09-28T12:14:04.794Z,58.32
2022-09-28T12:17:04.674Z,58.64
2022-09-28T12:19:48.144Z,60.24
2022-09-28T12:22:42.983Z,60.22
2022-09-28T12:25:19.016Z,60.00
2022-09-28T12:28:49.087Z,59.08
2022-09-28T12:31:48.303Z,61.74
2022-09-28T12:34:15.772Z,61.98
2022-09-28T12:37:15.307Z,61.65
2022-09-28T12:40:32.478Z,60.33
2022-09-28T12:43:28.876Z,61.49
2022-09-28T12:46:48.898Z,60.96
2022-09-28T12:50:37.108Z,61.38
2022-09-28T12:53:08.386Z,61.86
2022-09-28T12:55:56.345Z,61.01
2022-09-28T12:59:01.024Z,60.50
2022-09-28T13:02:08.257Z,61.80
2022-09-28T13:05:02.200Z,61.48
2022-09-28T13:08:03.628Z,61.86
2022-09-28T13:11:03.168Z,62.37
2022-09-28T13:14:08.043Z,62.19
2022-09-28T13:17:02.965Z,61.48
2022-09-28T13:20:13.240Z,61.54
2022-09-28T13:23:16.672Z,61.98
2022-09-28T13:26:16.523Z,61.82
2022-09-28T13:28:47.009Z,61.62
2022-09-28T13:31:22.354Z,62.69
2022-09-28T13:33:52.190Z,63.22
2022-09-28T13:36:28.479Z,63.06
2022-09-28T13:38:59.526Z,63.62
2022-09-28T13:41:34.258Z,63.69
2022-09-28T13:44:10.749Z,64.55
2022-09-28T13:47:20.490Z,63.39
2022-09-28T13:50:19.254Z,63.39
2022-09-28T13:53:16.281Z,62.09
2022-09-28T13:56:19.855Z,63.52
2022-09-28T13:59:28.040Z,63.02
2022-09-28T14:02:17.318Z,63.19
2022-09-28T14:05:03.336Z,64.02
2022-09-28T14:07:36.570Z,64.55
2022-09-28T14:10:21.519Z,64.42
2022-09-28T14:12:52.080Z,64.49
2022-09-28T14:15:41.923Z,65.17
2022-09-28T14:18:27.606Z,65.22
2022-09-28T14:21:12.426Z,65.63
2022-09-28T14:24:30.181Z,65.68
2022-09-28T14:27:27.946Z,65.98
2022-09-28T14:30:12.217Z,66.90
2022-09-28T14:33:00.458Z,66.61
2022-09-28T14:35:41.582Z,66.68
2022-09-28T14:38:36.683Z,66.71
2022-09-28T14:41:31.289Z,66.36
2022-09-28T14:44:12.309Z,66.97
2022-09-28T14:46:47.450Z,66.96
2022-09-28T14:49:19.221Z,66.83
2022-09-28T14:51:55.929Z,67.37
2022-09-28T14:54:30.226Z,67.84
2022-09-28T14:56:57.622Z,67.99
2022-09-28T14:59:38.310Z,67.98
2022-09-28T15:02:08.698Z,68.71
2022-09-28T15:04:43.401Z,68.76
2022-09-28T15:07:23.450Z,68.75
2022-09-28T15:09:54.996Z,69.39
2022-09-28T15:12:30.971Z,69.41
2022-09-28T15:15:06.479Z,69.45
2022-09-28T15:17:40.486Z,69.56
2022-09-28T15:20:33.359Z,69.94
2022-09-28T15:23:00.851Z,69.88
2022-09-28T15:25:31.763Z,69.99
2022-09-28T15:28:13.348Z,70.19
2022-09-28T15:30:40.844Z,70.54
2022-09-28T15:33:50.142Z,71.17
2022-09-28T15:36:25.404Z,70.75
2022-09-28T15:39:15.331Z,70.97
2022-09-28T15:41:45.678Z,71.26
2022-09-28T15:44:13.073Z,71.16
2022-09-28T15:46:47.848Z,71.19
2022-09-28T15:49:38.797Z,71.58
2022-09-28T15:52:21.608Z,71.44
2022-09-28T15:54:49.491Z,71.81
2022-09-28T15:57:40.382Z,72.34
2022-09-28T16:00:35.004Z,72.65
2022-09-28T16:03:07.463Z,72.73
2022-09-28T16:05:57.850Z,73.05
2022-09-28T16:08:32.961Z,73.31
2022-09-28T16:11:14.081Z,73.70
2022-09-28T16:14:01.513Z,74.77
2022-09-28T16:16:52.167Z,75.04
2022-09-28T16:19:25.341Z,74.89
2022-09-28T16:21:56.409Z,75.35
2022-09-28T16:24:30.453Z,75.30
2022-09-28T16:27:23.077Z,75.63
2022-09-28T16:30:05.133Z,75.97
2022-09-28T16:32:50.467Z,76.07
2022-09-28T16:35:23.394Z,75.73
2022-09-28T16:38:00.868Z,75.87
2022-09-28T16:40:29.484Z,76.38
2022-09-28T16:43:03.314Z,76.07
2022-09-28T16:45:31.316Z,76.61
2022-09-28T16:47:59.103Z,76.46
2022-09-28T16:50:26.622Z,76.44
2022-09-28T16:53:31.239Z,76.55
2022-09-28T16:55:59.830Z,76.85
2022-09-28T16:58:28.890Z,76.62
2022-09-28T17:00:56.414Z,77.14
2022-09-28T17:03:25.296Z,77.27
2022-09-28T17:05:53.882Z,77.35
2022-09-28T17:08:23.844Z,77.28
2022-09-28T17:11:14.512Z,77.49
2022-09-28T17:13:45.168Z,77.73
2022-09-28T17:16:28.190Z,78.17
2022-09-28T17:19:25.863Z,78.27
2022-09-28T17:21:54.395Z,78.35
2022-09-28T17:24:22.104Z,78.59
2022-09-28T17:26:51.914Z,79.56
2022-09-28T17:29:19.635Z,79.33
2022-09-28T17:31:48.175Z,79.44
2022-09-28T17:34:16.382Z,79.92
2022-09-28T17:36:45.314Z,79.50
2022-09-28T17:39:16.434Z,79.26
2022-09-28T17:41:44.586Z,79.40
2022-09-28T17:44:16.217Z,79.94
2022-09-28T17:46:48.550Z,79.49
2022-09-28T17:49:17.260Z,79.43
2022-09-28T17:51:44.809Z,79.91
2022-09-28T17:54:13.594Z,79.50
2022-09-28T17:56:42.624Z,79.73
2022-09-28T17:59:14.504Z,79.82
2022-09-28T18:01:42.407Z,79.98
2022-09-28T18:04:22.931Z,79.94
2022-09-28T18:06:55.405Z,80.07
2022-09-28T18:09:25.342Z,80.52
2022-09-28T18:12:03.921Z,80.12
2022-09-28T18:14:31.386Z,80.50
2022-09-28T18:16:58.869Z,80.68
2022-09-28T18:19:31.802Z,80.50
2022-09-28T18:22:01.310Z,80.01
2022-09-28T18:24:29.303Z,79.53
2022-09-28T18:26:56.799Z,78.98
2022-09-28T18:29:24.431Z,78.19
2022-09-28T18:31:52.075Z,77.84
2022-09-28T18:34:19.691Z,77.89
2022-09-28T18:36:47.235Z,78.01
2022-09-28T18:39:14.752Z,78.56
2022-09-28T18:41:42.350Z,78.95
2022-09-28T18:44:10.171Z,77.68
2022-09-28T18:46:37.913Z,77.70
2022-09-28T18:49:05.537Z,76.57
2022-09-28T18:51:33.052Z,77.05
2022-09-28T18:54:06.628Z,76.73
2022-09-28T18:56:37.321Z,76.93
2022-09-28T18:59:11.733Z,77.23
2022-09-28T19:01:41.885Z,77.91
2022-09-28T19:04:11.366Z,78.36
2022-09-28T19:06:41.779Z,78.67
2022-09-28T19:09:09.692Z,78.95
2022-09-28T19:11:37.669Z,79.05
2022-09-28T19:14:05.425Z,77.84
2022-09-28T19:16:35.822Z,76.06
2022-09-28T19:19:03.822Z,75.68
2022-09-28T19:21:31.808Z,75.87
2022-09-28T19:24:03.989Z,74.44
2022-09-28T19:26:32.829Z,74.15
2022-09-28T19:29:02.386Z,73.74
2022-09-28T19:31:30.960Z,74.02
2022-09-28T19:33:58.835Z,74.99
2022-09-28T19:36:28.615Z,74.84
2022-09-28T19:39:03.063Z,74.03
2022-09-28T19:41:51.734Z,73.98
2022-09-28T19:44:25.703Z,72.65
2022-09-28T19:46:59.339Z,73.14
2022-09-28T19:49:27.981Z,71.98
2022-09-28T19:52:12.039Z,72.08
2022-09-28T19:54:41.206Z,72.32
2022-09-28T19:57:09.006Z,72.99
2022-09-28T19:59:37.561Z,73.41
2022-09-28T20:02:10.393Z,73.67
2022-09-28T20:04:37.977Z,73.39
2022-09-28T20:07:05.944Z,73.20
2022-09-28T20:09:33.611Z,73.55
2022-09-28T20:12:01.483Z,72.35
2022-09-28T20:14:33.142Z,70.50
2022-09-28T20:17:04.184Z,71.66
2022-09-28T20:19:31.662Z,67.71
2022-09-28T20:22:03.110Z,65.59
2022-09-28T20:24:31.496Z,64.00
2022-09-28T20:26:59.396Z,64.43
2022-09-28T20:29:26.854Z,63.55
2022-09-28T20:31:54.277Z,63.51
2022-09-28T20:34:21.748Z,64.05
2022-09-28T20:36:49.271Z,64.07
2022-09-28T20:39:17.001Z,63.66
2022-09-28T20:41:46.096Z,64.20
2022-09-28T20:44:13.663Z,64.46
2022-09-28T20:46:41.190Z,64.25
2022-09-28T20:49:08.635Z,64.24
2022-09-28T20:51:40.338Z,64.84
2022-09-28T20:54:07.991Z,65.00
2022-09-28T20:56:39.279Z,65.92
2022-09-28T20:59:15.150Z,66.90
2022-09-28T21:01:42.932Z,67.28
2022-09-28T21:04:11.009Z,67.65
2022-09-28T21:06:40.954Z,67.97
2022-09-28T21:09:12.198Z,67.64
2022-09-28T21:11:40.290Z,67.78
2022-09-28T21:14:10.409Z,68.00
2022-09-28T21:16:38.845Z,68.20
2022-09-28T21:19:06.443Z,68.42
2022-09-28T21:21:33.952Z,69.12
2022-09-28T21:24:02.166Z,70.53
2022-09-28T21:26:31.086Z,70.26
2022-09-28T21:29:05.514Z,70.39
2022-09-28T21:31:42.833Z,69.90
2022-09-28T21:34:20.308Z,69.69
2022-09-28T21:36:51.356Z,69.48
2022-09-28T21:39:20.186Z,69.21
2022-09-28T21:41:48.111Z,69.19
2022-09-28T21:44:15.656Z,69.62
2022-09-28T21:46:43.258Z,67.39
2022-09-28T21:49:12.659Z,66.28
2022-09-28T21:51:40.255Z,66.84
2022-09-28T21:54:08.182Z,67.08
2022-09-28T21:56:35.687Z,65.02
2022-09-28T21:59:03.251Z,63.68
2022-09-28T22:01:31.771Z,63.53
2022-09-28T22:03:59.370Z,63.57
2022-09-28T22:06:30.167Z,64.15
2022-09-28T22:08:58.150Z,63.91
2022-09-28T22:11:28.220Z,64.33
2022-09-28T22:14:00.224Z,63.82
2022-09-28T22:16:30.848Z,64.39
2022-09-28T22:18:59.946Z,65.78
2022-09-28T22:21:31.763Z,66.19
2022-09-28T22:24:04.122Z,66.37
2022-09-28T22:26:34.105Z,66.66
2022-09-28T22:29:08.512Z,65.39
2022-09-28T22:31:40.404Z,63.99
2022-09-28T22:34:09.207Z,62.73
2022-09-28T22:36:36.818Z,61.44
2022-09-28T22:39:04.763Z,60.28
2022-09-28T22:41:32.815Z,60.74
2022-09-28T22:44:00.715Z,60.97
2022-09-28T22:46:31.172Z,60.84
2022-09-28T22:48:59.634Z,61.65
2022-09-28T22:51:28.754Z,62.23
2022-09-28T22:53:59.320Z,62.71
2022-09-28T22:56:28.230Z,63.28
2022-09-28T22:58:55.706Z,63.88
2022-09-28T23:01:29.409Z,64.41
2022-09-28T23:03:58.477Z,65.18
2022-09-28T23:06:29.008Z,66.02
2022-09-28T23:08:57.284Z,66.23
2022-09-28T23:11:25.470Z,66.66
2022-09-28T23:13:54.319Z,67.37
2022-09-28T23:16:24.781Z,68.26
2022-09-28T23:18:54.862Z,69.02
2022-09-28T23:21:25.923Z,69.01
2022-09-28T23:24:00.953Z,70.38
2022-09-28T23:26:32.698Z,71.63
2022-09-28T23:29:00.646Z,72.32
2022-09-28T23:31:32.118Z,74.18
2022-09-28T23:34:05.803Z,75.71
2022-09-28T23:36:34.960Z,75.79
2022-09-28T23:39:03.213Z,75.75
2022-09-28T23:41:30.703Z,76.68
2022-09-28T23:43:58.168Z,77.06
2022-09-28T23:46:25.701Z,77.26
2022-09-28T23:48:53.274Z,77.43
2022-09-28T23:51:20.948Z,76.92
2022-09-28T23:53:48.442Z,77.12
2022-09-28T23:56:15.968Z,76.36
2022-09-28T23:58:43.541Z,76.34
